createdAt,value
2019-05-14T00:00:14.313Z,7.4335
2019-05-14T00:01:17.244Z,7.4234
2019-05-14T00:02:21.402Z,7.3932
2019-05-14T00:03:24.292Z,7.4033
2019-05-14T00:04:27.332Z,7.4033
2019-05-14T00:05:32.196Z,7.4033
2019-05-14T00:06:34.287Z,7.4033
2019-05-14T00:07:37.303Z,7.3932
2019-05-14T00:08:41.804Z,7.3831
2019-05-14T00:09:45.343Z,7.3831
2019-05-14T00:10:48.262Z,7.3630
2019-05-14T00:11:51.412Z,7.3630
2019-05-14T00:12:54.270Z,7.3529
2019-05-14T00:13:57.309Z,7.3529
2019-05-14T00:15:02.134Z,7.3529
2019-05-14T00:16:05.308Z,7.3328
2019-05-14T00:17:08.307Z,7.3529
2019-05-14T00:18:11.727Z,7.3227
2019-05-14T00:19:15.304Z,7.3227
2019-05-14T00:20:18.329Z,7.3227
2019-05-14T00:21:21.295Z,7.2925
2019-05-14T00:22:24.274Z,7.2925
2019-05-14T00:23:27.297Z,7.2824
2019-05-14T00:24:32.254Z,7.2522
2019-05-14T00:25:35.342Z,7.2522
2019-05-14T00:26:39.342Z,7.2421
2019-05-14T00:27:42.294Z,7.2421
2019-05-14T00:28:45.288Z,7.2321
2019-05-14T00:29:48.317Z,7.2119
2019-05-14T00:30:52.379Z,7.2119
2019-05-14T00:31:55.286Z,7.2119
2019-05-14T00:32:58.354Z,7.2119
2019-05-14T00:34:01.734Z,7.2321
2019-05-14T00:35:05.319Z,7.2321
2019-05-14T00:36:08.274Z,7.2421
2019-05-14T00:37:11.684Z,7.2421
2019-05-14T00:38:14.293Z,7.2522
2019-05-14T00:39:16.340Z,7.2321
2019-05-14T00:40:19.351Z,7.2321
2019-05-14T00:41:23.342Z,7.2119
2019-05-14T00:42:26.325Z,7.2119
2019-05-14T00:43:29.290Z,7.2119
2019-05-14T00:44:32.558Z,7.2119
2019-05-14T00:45:35.347Z,7.2018
2019-05-14T00:46:38.319Z,7.2119
2019-05-14T00:47:41.917Z,7.2119
2019-05-14T00:48:45.261Z,7.2321
2019-05-14T00:49:48.354Z,7.2321
2019-05-14T00:50:51.778Z,7.2321
2019-05-14T00:51:55.295Z,7.2421
2019-05-14T00:52:58.303Z,7.2321
2019-05-14T00:54:01.701Z,7.2119
2019-05-14T00:55:05.274Z,7.2018
2019-05-14T00:56:08.356Z,7.2119
2019-05-14T00:57:11.836Z,7.2119
2019-05-14T00:58:16.285Z,7.2119
2019-05-14T00:59:21.520Z,7.2119
2019-05-14T01:00:23.274Z,7.2119
2019-05-14T01:01:26.344Z,7.2119
2019-05-14T01:02:29.271Z,7.2018
2019-05-14T01:03:32.610Z,7.2018
2019-05-14T01:04:35.278Z,7.1716
2019-05-14T01:05:38.283Z,7.2018
2019-05-14T01:06:42.033Z,7.1716
2019-05-14T01:07:45.317Z,7.1817
2019-05-14T01:08:47.348Z,7.2018
2019-05-14T01:09:52.397Z,7.1817
2019-05-14T01:10:55.329Z,7.1817
2019-05-14T01:11:58.301Z,7.1716
2019-05-14T01:13:01.437Z,7.1515
2019-05-14T01:14:04.308Z,7.1414
2019-05-14T01:15:10.745Z,7.1313
2019-05-14T01:16:15.327Z,7.1112
2019-05-14T01:17:18.330Z,7.1112
2019-05-14T01:18:21.888Z,7.1011
2019-05-14T01:19:25.293Z,7.0709
2019-05-14T01:20:27.328Z,7.0709
2019-05-14T01:21:31.218Z,7.1112
2019-05-14T01:22:34.307Z,7.0709
2019-05-14T01:23:37.307Z,7.0609
2019-05-14T01:24:41.719Z,7.0709
2019-05-14T01:25:47.317Z,7.0709
2019-05-14T01:26:52.250Z,7.0609
2019-05-14T01:27:55.291Z,7.0609
2019-05-14T01:28:58.277Z,7.0609
2019-05-14T01:30:02.039Z,7.0508
2019-05-14T01:31:05.296Z,7.0508
2019-05-14T01:32:08.332Z,7.0306
2019-05-14T01:33:11.874Z,7.0306
2019-05-14T01:34:15.318Z,7.0508
2019-05-14T01:35:18.278Z,7.0306
2019-05-14T01:36:21.577Z,7.0206
2019-05-14T01:37:24.278Z,7.0004
2019-05-14T01:38:27.323Z,7.0004
2019-05-14T01:39:32.093Z,7.0004
2019-05-14T01:40:35.279Z,6.9904
2019-05-14T01:41:38.325Z,6.9702
2019-05-14T01:42:41.741Z,6.9702
2019-05-14T01:43:45.299Z,6.9904
2019-05-14T01:44:48.278Z,6.9702
2019-05-14T01:45:52.454Z,6.9904
2019-05-14T01:46:55.261Z,6.9904
2019-05-14T01:47:58.307Z,6.9904
2019-05-14T01:49:01.659Z,6.9702
2019-05-14T01:50:04.286Z,6.9601
2019-05-14T01:51:07.338Z,6.9601
2019-05-14T01:52:11.277Z,6.9601
2019-05-14T01:53:14.318Z,6.9501
2019-05-14T01:54:17.284Z,6.9601
2019-05-14T01:55:21.905Z,6.9501
2019-05-14T01:56:25.316Z,6.9601
2019-05-14T01:57:28.317Z,6.9501
2019-05-14T01:58:31.358Z,6.9299
2019-05-14T01:59:34.293Z,6.9299
2019-05-14T02:00:37.318Z,6.9299
2019-05-14T02:01:41.503Z,6.9299
2019-05-14T02:02:44.314Z,6.8896
2019-05-14T02:03:47.274Z,6.8896
2019-05-14T02:04:51.330Z,6.8896
2019-05-14T02:05:54.304Z,6.8896
2019-05-14T02:06:57.328Z,6.8796
2019-05-14T02:08:01.714Z,6.8796
2019-05-14T02:09:05.290Z,6.8796
2019-05-14T02:10:08.296Z,6.8796
2019-05-14T02:11:12.121Z,6.8796
2019-05-14T02:12:15.381Z,6.8695
2019-05-14T02:13:18.268Z,6.8494
2019-05-14T02:14:22.030Z,6.8393
2019-05-14T02:15:36.305Z,6.8091
2019-05-14T02:16:33.279Z,6.7889
2019-05-14T02:17:36.281Z,6.8091
2019-05-14T02:18:41.457Z,6.8192
2019-05-14T02:19:44.274Z,6.8091
2019-05-14T02:20:47.275Z,6.8192
2019-05-14T02:21:51.436Z,6.8192
2019-05-14T02:22:54.259Z,6.8192
2019-05-14T02:23:56.311Z,6.8393
2019-05-14T02:24:59.264Z,6.8494
2019-05-14T02:26:02.690Z,6.8494
2019-05-14T02:27:06.315Z,6.8393
2019-05-14T02:28:11.414Z,6.8494
2019-05-14T02:29:14.284Z,6.8494
2019-05-14T02:30:20.282Z,6.8695
2019-05-14T02:31:25.288Z,6.8695
2019-05-14T02:32:29.753Z,6.8192
2019-05-14T02:33:33.310Z,6.8393
2019-05-14T02:34:39.459Z,6.8393
2019-05-14T02:35:43.323Z,6.8393
2019-05-14T02:36:49.425Z,6.8393
2019-05-14T02:37:52.337Z,6.8393
2019-05-14T02:38:55.291Z,6.8091
2019-05-14T02:39:59.667Z,6.8091
2019-05-14T02:41:03.317Z,6.7889
2019-05-14T02:42:09.570Z,6.7889
2019-05-14T02:43:13.313Z,6.7789
2019-05-14T02:44:18.881Z,6.7789
2019-05-14T02:45:21.272Z,6.7789
2019-05-14T02:46:24.339Z,6.7889
2019-05-14T02:47:29.885Z,6.7889
2019-05-14T02:48:33.401Z,6.8091
2019-05-14T02:49:39.340Z,6.8091
2019-05-14T02:50:43.285Z,6.7889
2019-05-14T02:51:50.070Z,6.7688
2019-05-14T02:52:53.348Z,6.7789
2019-05-14T02:53:58.919Z,6.7487
2019-05-14T02:55:02.297Z,6.7487
2019-05-14T02:56:05.313Z,6.7386
2019-05-14T02:57:10.378Z,6.7386
2019-05-14T02:58:14.329Z,6.7184
2019-05-14T02:59:19.599Z,6.6983
2019-05-14T03:00:23.305Z,6.6983
2019-05-14T03:01:26.285Z,6.7184
2019-05-14T03:02:29.808Z,6.7184
2019-05-14T03:03:33.302Z,6.7184
2019-05-14T03:04:39.181Z,6.7184
2019-05-14T03:05:42.300Z,6.7184
2019-05-14T03:06:45.317Z,6.7386
2019-05-14T03:07:49.989Z,6.7184
2019-05-14T03:08:53.343Z,6.6983
2019-05-14T03:09:59.194Z,6.6983
2019-05-14T03:11:01.330Z,6.6983
2019-05-14T03:12:04.291Z,6.6983
2019-05-14T03:13:09.493Z,6.6983
2019-05-14T03:14:12.319Z,6.6983
2019-05-14T03:15:15.308Z,6.6882
2019-05-14T03:16:26.036Z,6.6983
2019-05-14T03:17:29.768Z,6.6882
2019-05-14T03:18:33.370Z,6.6882
2019-05-14T03:19:36.275Z,6.6681
2019-05-14T03:20:39.019Z,6.6580
2019-05-14T03:21:42.303Z,6.6681
2019-05-14T03:23:01.365Z,6.6580
2019-05-14T03:23:53.326Z,6.6379
2019-05-14T03:24:59.621Z,6.6580
2019-05-14T03:26:03.312Z,6.6681
2019-05-14T03:27:09.322Z,6.6580
2019-05-14T03:28:13.327Z,6.6580
2019-05-14T03:29:19.351Z,6.6580
2019-05-14T03:30:23.498Z,6.6580
2019-05-14T03:31:32.255Z,6.6580
2019-05-14T03:32:34.297Z,6.6379
2019-05-14T03:33:43.010Z,6.6580
2019-05-14T03:34:45.305Z,6.6580
2019-05-14T03:35:56.360Z,6.6580
2019-05-14T03:37:02.367Z,6.6580
2019-05-14T03:38:04.315Z,6.6580
2019-05-14T03:39:10.251Z,6.6379
2019-05-14T03:40:13.297Z,6.6278
2019-05-14T03:41:19.429Z,6.5976
2019-05-14T03:42:22.271Z,6.5875
2019-05-14T03:43:25.332Z,6.5875
2019-05-14T03:44:29.112Z,6.5573
2019-05-14T03:45:32.339Z,6.5372
2019-05-14T03:46:45.678Z,6.5372
2019-05-14T03:47:43.309Z,6.5070
2019-05-14T03:48:49.038Z,6.5070
2019-05-14T03:49:52.284Z,6.5070
2019-05-14T03:50:55.313Z,6.4767
2019-05-14T03:52:00.452Z,6.4868
2019-05-14T03:53:03.318Z,6.4767
2019-05-14T03:54:11.390Z,6.4767
2019-05-14T03:55:14.281Z,6.4566
2019-05-14T03:56:19.237Z,6.4465
2019-05-14T03:57:22.286Z,6.4465
2019-05-14T03:58:25.298Z,6.4365
2019-05-14T03:59:29.307Z,6.4365
2019-05-14T04:00:32.290Z,6.4163
2019-05-14T04:01:35.275Z,6.4062
2019-05-14T04:02:39.116Z,6.3861
2019-05-14T04:03:42.313Z,6.3861
2019-05-14T04:04:45.308Z,6.3861
2019-05-14T04:05:49.382Z,6.3861
2019-05-14T04:06:52.305Z,6.3861
2019-05-14T04:07:55.307Z,6.3861
2019-05-14T04:09:00.626Z,6.3861
2019-05-14T04:10:04.287Z,6.3760
2019-05-14T04:11:09.624Z,6.3760
2019-05-14T04:12:13.297Z,6.3559
2019-05-14T04:13:19.585Z,6.3458
2019-05-14T04:14:23.296Z,6.3559
2019-05-14T04:15:29.643Z,6.3458
2019-05-14T04:16:33.332Z,6.3458
2019-05-14T04:17:38.783Z,6.3458
2019-05-14T04:18:44.326Z,6.3055
2019-05-14T04:19:49.270Z,6.3055
2019-05-14T04:20:52.300Z,6.3055
2019-05-14T04:21:55.313Z,6.3055
2019-05-14T04:23:00.006Z,6.2955
2019-05-14T04:24:03.330Z,6.2955
2019-05-14T04:25:06.300Z,6.2753
2019-05-14T04:26:09.584Z,6.2753
2019-05-14T04:27:13.126Z,6.2753
2019-05-14T04:28:19.288Z,6.2753
2019-05-14T04:29:22.291Z,6.2955
2019-05-14T04:30:25.327Z,6.2753
2019-05-14T04:31:29.831Z,6.2955
2019-05-14T04:32:33.413Z,6.2955
2019-05-14T04:33:39.051Z,6.2955
2019-05-14T04:34:41.305Z,6.3055
2019-05-14T04:35:44.274Z,6.2955
2019-05-14T04:36:50.076Z,6.2753
2019-05-14T04:37:53.287Z,6.2955
2019-05-14T04:38:56.299Z,6.2955
2019-05-14T04:39:59.470Z,6.3257
2019-05-14T04:41:02.312Z,6.3257
2019-05-14T04:42:05.310Z,6.3559
2019-05-14T04:43:10.153Z,6.3458
2019-05-14T04:44:13.331Z,6.3458
2019-05-14T04:45:19.414Z,6.3559
2019-05-14T04:46:22.289Z,6.3861
2019-05-14T04:47:31.862Z,6.3861
2019-05-14T04:48:37.596Z,6.3861
2019-05-14T04:49:41.378Z,6.4062
2019-05-14T04:50:44.292Z,6.3861
2019-05-14T04:51:50.180Z,6.3861
2019-05-14T04:52:53.281Z,6.3861
2019-05-14T04:53:59.613Z,6.3760
2019-05-14T04:55:03.324Z,6.3861
2019-05-14T04:56:08.732Z,6.3861
2019-05-14T04:57:12.296Z,6.4062
2019-05-14T04:58:15.322Z,6.4163
2019-05-14T04:59:19.135Z,6.4163
2019-05-14T05:00:22.299Z,6.4163
2019-05-14T05:01:25.359Z,6.4163
2019-05-14T05:02:30.110Z,6.4365
2019-05-14T05:03:33.286Z,6.4465
2019-05-14T05:04:36.301Z,6.4566
2019-05-14T05:05:39.531Z,6.4566
2019-05-14T05:06:42.318Z,6.4767
2019-05-14T05:07:45.326Z,6.4566
2019-05-14T05:08:49.806Z,6.4465
2019-05-14T05:09:53.319Z,6.4465
2019-05-14T05:10:59.658Z,6.4465
2019-05-14T05:12:03.317Z,6.4465
2019-05-14T05:13:09.031Z,6.4566
2019-05-14T05:14:12.308Z,6.4566
2019-05-14T05:15:14.329Z,6.4465
2019-05-14T05:16:19.224Z,6.4465
2019-05-14T05:17:38.920Z,6.4767
2019-05-14T05:18:32.302Z,6.4868
2019-05-14T05:19:35.354Z,6.4868
2019-05-14T05:20:39.444Z,6.5070
2019-05-14T05:21:42.287Z,6.4868
2019-05-14T05:22:45.299Z,6.5070
2019-05-14T05:23:49.221Z,6.5170
2019-05-14T05:24:52.361Z,6.5573
2019-05-14T05:25:55.299Z,6.5674
2019-05-14T05:26:58.619Z,6.5875
2019-05-14T05:28:01.303Z,6.6177
2019-05-14T05:29:07.208Z,6.6278
2019-05-14T05:30:12.339Z,6.6278
2019-05-14T05:31:15.305Z,6.6580
2019-05-14T05:32:19.412Z,6.6882
2019-05-14T05:33:23.305Z,6.7184
2019-05-14T05:34:28.288Z,6.6983
2019-05-14T05:35:31.311Z,6.6983
2019-05-14T05:36:34.300Z,6.6882
2019-05-14T05:37:38.447Z,6.6983
2019-05-14T05:38:42.310Z,6.6882
2019-05-14T05:39:45.308Z,6.6882
2019-05-14T05:40:48.685Z,6.6882
2019-05-14T05:41:51.311Z,6.6983
2019-05-14T05:42:54.300Z,6.7386
2019-05-14T05:43:58.915Z,6.7487
2019-05-14T05:45:02.303Z,6.7487
2019-05-14T05:46:05.329Z,6.7688
2019-05-14T05:47:09.269Z,6.7789
2019-05-14T05:48:12.303Z,6.7789
2019-05-14T05:49:15.288Z,6.7889
2019-05-14T05:50:19.379Z,6.8091
2019-05-14T05:51:23.332Z,6.8393
2019-05-14T05:52:28.239Z,6.8494
2019-05-14T05:53:31.275Z,6.8796
2019-05-14T05:54:34.291Z,6.8796
2019-05-14T05:55:39.275Z,6.9199
2019-05-14T05:56:42.358Z,6.9299
2019-05-14T05:57:45.334Z,6.9299
2019-05-14T05:58:48.952Z,6.9501
2019-05-14T05:59:52.309Z,6.9299
2019-05-14T06:00:55.287Z,6.9299
2019-05-14T06:01:58.800Z,6.9299
2019-05-14T06:03:02.310Z,6.9299
2019-05-14T06:04:05.295Z,6.9299
2019-05-14T06:05:08.334Z,6.9601
2019-05-14T06:06:13.388Z,6.9904
2019-05-14T06:07:18.392Z,7.0206
2019-05-14T06:08:21.304Z,7.0709
2019-05-14T06:09:24.334Z,7.1011
2019-05-14T06:10:29.179Z,7.1414
2019-05-14T06:11:32.322Z,7.1716
2019-05-14T06:12:34.339Z,7.2018
2019-05-14T06:13:39.016Z,7.2321
2019-05-14T06:14:42.281Z,7.2522
2019-05-14T06:15:48.818Z,7.3126
2019-05-14T06:16:53.321Z,7.3529
2019-05-14T06:18:13.359Z,7.3630
2019-05-14T06:19:08.201Z,7.3529
2019-05-14T06:20:11.292Z,7.3932
2019-05-14T06:21:14.303Z,7.3932
2019-05-14T06:22:18.924Z,7.3932
2019-05-14T06:23:22.351Z,7.3932
2019-05-14T06:24:25.319Z,7.4033
2019-05-14T06:25:31.336Z,7.4738
2019-05-14T06:26:34.317Z,7.5040
2019-05-14T06:27:38.070Z,7.5443
2019-05-14T06:28:41.141Z,7.6047
2019-05-14T06:29:44.278Z,7.6550
2019-05-14T06:30:48.413Z,7.7155
2019-05-14T06:31:51.292Z,7.7557
2019-05-14T06:32:54.351Z,7.7859
2019-05-14T06:33:59.109Z,7.7960
2019-05-14T06:35:02.333Z,7.8665
2019-05-14T06:36:08.716Z,7.8766
2019-05-14T06:37:12.336Z,7.8967
2019-05-14T06:38:15.314Z,7.9269
2019-05-14T06:39:18.419Z,7.9471
2019-05-14T06:40:21.344Z,7.9773
2019-05-14T06:41:24.294Z,8.0075
2019-05-14T06:42:28.507Z,8.0780
2019-05-14T06:43:32.350Z,8.1183
2019-05-14T06:44:35.305Z,8.1787
2019-05-14T06:45:39.143Z,8.2391
2019-05-14T06:46:43.356Z,8.2794
2019-05-14T06:47:48.621Z,8.2996
2019-05-14T06:48:52.362Z,8.3298
2019-05-14T06:49:55.303Z,8.3398
2019-05-14T06:50:58.536Z,8.3600
2019-05-14T06:52:01.312Z,8.3801
2019-05-14T06:53:04.295Z,8.4103
2019-05-14T06:54:09.206Z,8.4204
2019-05-14T06:55:12.295Z,8.4607
2019-05-14T06:56:18.802Z,8.4909
2019-05-14T06:57:23.278Z,8.5211
2019-05-14T06:58:26.304Z,8.5513
2019-05-14T06:59:29.357Z,8.5815
2019-05-14T07:00:31.348Z,8.6319
2019-05-14T07:01:34.317Z,8.6621
2019-05-14T07:02:43.240Z,8.7125
2019-05-14T07:03:45.337Z,8.7628
2019-05-14T07:04:48.541Z,8.8232
2019-05-14T07:05:51.319Z,8.8837
2019-05-14T07:06:54.298Z,8.9441
2019-05-14T07:07:59.704Z,8.9542
2019-05-14T07:09:03.300Z,9.0247
2019-05-14T07:10:08.739Z,9.0448
2019-05-14T07:11:12.252Z,9.0750
2019-05-14T07:12:15.331Z,9.1052
2019-05-14T07:13:18.939Z,9.1052
2019-05-14T07:14:21.302Z,9.1254
2019-05-14T07:15:24.336Z,9.1858
2019-05-14T07:16:28.682Z,9.2160
2019-05-14T07:17:32.302Z,9.2563
2019-05-14T07:18:46.398Z,9.2865
2019-05-14T07:19:43.351Z,9.3066
2019-05-14T07:20:48.359Z,9.3066
2019-05-14T07:21:51.314Z,9.3066
2019-05-14T07:22:54.308Z,9.2865
2019-05-14T07:23:56.317Z,9.2865
2019-05-14T07:24:59.328Z,9.2764
2019-05-14T07:26:02.292Z,9.2462
2019-05-14T07:27:05.324Z,9.2261
2019-05-14T07:28:08.860Z,9.2261
2019-05-14T07:29:12.312Z,9.2160
2019-05-14T07:30:15.323Z,9.2160
2019-05-14T07:31:18.793Z,9.2059
2019-05-14T07:32:22.284Z,9.1858
2019-05-14T07:33:25.510Z,9.1757
2019-05-14T07:34:28.440Z,9.1354
2019-05-14T07:35:31.327Z,9.0952
2019-05-14T07:36:34.339Z,9.0649
2019-05-14T07:37:39.703Z,9.0347
2019-05-14T07:38:43.327Z,9.0045
2019-05-14T07:39:48.506Z,8.9944
2019-05-14T07:40:52.343Z,8.9743
2019-05-14T07:41:55.282Z,8.9743
2019-05-14T07:42:58.430Z,8.9542
2019-05-14T07:44:01.297Z,8.9743
2019-05-14T07:45:04.300Z,9.0045
2019-05-14T07:46:08.515Z,9.0247
2019-05-14T07:47:12.319Z,9.0347
2019-05-14T07:48:15.318Z,9.0448
2019-05-14T07:49:18.567Z,9.0750
2019-05-14T07:50:21.362Z,9.0952
2019-05-14T07:51:24.303Z,9.1254
2019-05-14T07:52:28.517Z,9.1354
2019-05-14T07:53:38.793Z,9.1757
2019-05-14T07:54:40.299Z,9.1757
2019-05-14T07:55:43.360Z,9.1757
2019-05-14T07:56:49.075Z,9.1556
2019-05-14T07:57:54.294Z,9.1254
2019-05-14T07:58:58.468Z,9.1052
2019-05-14T08:00:03.328Z,9.1354
2019-05-14T08:01:06.325Z,9.1052
2019-05-14T08:02:09.517Z,9.1254
2019-05-14T08:03:12.291Z,9.0952
2019-05-14T08:04:17.217Z,9.1052
2019-05-14T08:05:22.310Z,9.1052
2019-05-14T08:06:24.388Z,9.1354
2019-05-14T08:07:28.180Z,9.1556
2019-05-14T08:08:31.291Z,9.1757
2019-05-14T08:09:34.300Z,9.1858
2019-05-14T08:10:36.328Z,9.2059
2019-05-14T08:11:38.865Z,9.2160
2019-05-14T08:12:42.325Z,9.2261
2019-05-14T08:13:45.345Z,9.2563
2019-05-14T08:15:09.032Z,9.2764
2019-05-14T08:15:55.323Z,9.2764
2019-05-14T08:16:59.554Z,9.3066
2019-05-14T08:18:03.293Z,9.3369
2019-05-14T08:19:20.885Z,9.3167
2019-05-14T08:20:14.337Z,9.3369
2019-05-14T08:21:19.351Z,9.3671
2019-05-14T08:22:23.337Z,9.3671
2019-05-14T08:23:28.207Z,9.3872
2019-05-14T08:24:31.286Z,9.3973
2019-05-14T08:25:34.315Z,9.4275
2019-05-14T08:26:38.181Z,9.4376
2019-05-14T08:27:41.367Z,9.4577
2019-05-14T08:28:44.284Z,9.4577
2019-05-14T08:29:48.703Z,9.4678
2019-05-14T08:30:52.302Z,9.4980
2019-05-14T08:31:55.337Z,9.5081
2019-05-14T08:32:58.419Z,9.5383
2019-05-14T08:34:04.633Z,9.5483
2019-05-14T08:35:09.082Z,9.5584
2019-05-14T08:36:12.295Z,9.5886
2019-05-14T08:37:15.292Z,9.6188
2019-05-14T08:38:18.539Z,9.6490
2019-05-14T08:39:22.258Z,9.6591
2019-05-14T08:40:25.324Z,9.6893
2019-05-14T08:41:28.780Z,9.7195
2019-05-14T08:42:34.062Z,9.7296
2019-05-14T08:43:39.791Z,9.7598
2019-05-14T08:44:47.937Z,9.8001
2019-05-14T08:45:53.312Z,9.8404
2019-05-14T08:46:58.436Z,9.8706
2019-05-14T08:48:02.317Z,9.9210
2019-05-14T08:49:05.340Z,9.9713
2019-05-14T08:50:09.116Z,9.9915
2019-05-14T08:51:12.393Z,10.0720
2019-05-14T08:52:18.969Z,10.1324
2019-05-14T08:53:22.334Z,10.1929
2019-05-14T08:54:25.335Z,10.4144
2019-05-14T08:55:29.666Z,10.6763
2019-05-14T08:56:33.305Z,10.9683
2019-05-14T08:57:38.611Z,11.1899
2019-05-14T08:58:42.323Z,11.5726
2019-05-14T08:59:45.337Z,11.9452
2019-05-14T09:00:48.479Z,12.2675
2019-05-14T09:02:01.792Z,12.4689
2019-05-14T09:02:59.327Z,12.6401
2019-05-14T09:04:02.305Z,12.7206
2019-05-14T09:05:05.502Z,12.8012
2019-05-14T09:06:10.367Z,12.7509
2019-05-14T09:07:13.341Z,12.9523
2019-05-14T09:08:18.957Z,13.1537
2019-05-14T09:09:22.325Z,13.2040
2019-05-14T09:10:25.366Z,13.4659
2019-05-14T09:11:35.026Z,13.7781
2019-05-14T09:12:38.617Z,14.1205
2019-05-14T09:13:42.355Z,14.1205
2019-05-14T09:14:45.324Z,14.2917
2019-05-14T09:15:48.928Z,14.4830
2019-05-14T09:16:52.358Z,14.7348
2019-05-14T09:17:55.314Z,15.0974
2019-05-14T09:18:58.278Z,15.6110
2019-05-14T09:20:06.735Z,16.1346
2019-05-14T09:21:09.296Z,16.6483
2019-05-14T09:22:12.373Z,17.0813
2019-05-14T09:23:15.296Z,17.4841
2019-05-14T09:24:18.377Z,17.7963
2019-05-14T09:25:21.292Z,18.0481
2019-05-14T09:26:24.325Z,18.2596
2019-05-14T09:27:29.246Z,18.5214
2019-05-14T09:28:32.303Z,18.8034
2019-05-14T09:29:35.335Z,19.1357
2019-05-14T09:30:38.333Z,19.4681
2019-05-14T09:31:41.342Z,19.7903
2019-05-14T09:32:44.354Z,20.1126
2019-05-14T09:33:49.480Z,20.4147
2019-05-14T09:34:52.322Z,20.6967
2019-05-14T09:36:09.554Z,20.9586
2019-05-14T09:37:03.354Z,21.2405
2019-05-14T09:38:08.510Z,21.5024
2019-05-14T09:39:12.257Z,21.7038
2019-05-14T09:40:14.381Z,21.9153
2019-05-14T09:41:18.549Z,21.7642
2019-05-14T09:42:21.286Z,21.3010
2019-05-14T09:43:24.346Z,20.9283
2019-05-14T09:44:29.317Z,20.6161
2019-05-14T09:45:32.319Z,20.5859
2019-05-14T09:46:35.351Z,20.7672
2019-05-14T09:47:38.736Z,20.9686
2019-05-14T09:48:42.279Z,21.2405
2019-05-14T09:49:45.310Z,21.5125
2019-05-14T09:50:48.977Z,21.7340
2019-05-14T09:51:52.318Z,21.9455
2019-05-14T09:52:55.336Z,22.1368
2019-05-14T09:53:58.926Z,22.3282
2019-05-14T09:55:02.339Z,22.4994
2019-05-14T09:56:05.359Z,22.6907
2019-05-14T09:57:08.495Z,22.9022
2019-05-14T09:58:11.311Z,23.0634
2019-05-14T09:59:14.316Z,23.0634
2019-05-14T10:00:18.683Z,23.1339
2019-05-14T10:01:22.355Z,23.2144
2019-05-14T10:02:25.316Z,23.3151
2019-05-14T10:03:27.312Z,23.3554
2019-05-14T10:04:30.361Z,23.1036
2019-05-14T10:05:33.274Z,23.1842
2019-05-14T10:06:39.015Z,23.2849
2019-05-14T10:07:42.291Z,23.4561
2019-05-14T10:08:45.321Z,23.5568
2019-05-14T10:09:49.184Z,23.6877
2019-05-14T10:10:52.310Z,23.8086
2019-05-14T10:11:55.337Z,23.9597
2019-05-14T10:13:01.350Z,24.0805
2019-05-14T10:14:05.328Z,24.2416
2019-05-14T10:15:08.843Z,23.9899
2019-05-14T10:16:12.320Z,23.9496
2019-05-14T10:17:15.358Z,23.9597
2019-05-14T10:18:19.039Z,24.0100
2019-05-14T10:19:22.314Z,24.1006
2019-05-14T10:20:40.238Z,24.1409
2019-05-14T10:21:33.311Z,24.1711
2019-05-14T10:22:36.369Z,24.2114
2019-05-14T10:23:39.280Z,24.2416
2019-05-14T10:24:42.317Z,24.2114
2019-05-14T10:25:45.346Z,24.2316
2019-05-14T10:26:49.156Z,24.1812
2019-05-14T10:27:52.367Z,24.0100
2019-05-14T10:28:54.307Z,23.5468
2019-05-14T10:29:58.859Z,22.9626
2019-05-14T10:31:03.808Z,22.7008
2019-05-14T10:32:08.737Z,22.7209
2019-05-14T10:33:15.082Z,22.7512
2019-05-14T10:34:19.228Z,22.4390
2019-05-14T10:35:22.301Z,21.9958
2019-05-14T10:36:25.283Z,21.5427
2019-05-14T10:37:28.792Z,21.3513
2019-05-14T10:38:32.329Z,21.4319
2019-05-14T10:39:35.352Z,21.6031
2019-05-14T10:40:38.701Z,21.8045
2019-05-14T10:41:42.335Z,22.1066
2019-05-14T10:42:44.358Z,22.3181
2019-05-14T10:43:49.736Z,22.4792
2019-05-14T10:44:53.285Z,22.7209
2019-05-14T10:45:58.001Z,22.9123
2019-05-14T10:47:01.322Z,23.0936
2019-05-14T10:48:04.351Z,22.9828
2019-05-14T10:49:19.996Z,22.9324
2019-05-14T10:50:15.331Z,23.0231
2019-05-14T10:51:18.354Z,23.1238
2019-05-14T10:52:23.313Z,23.2346
2019-05-14T10:53:25.377Z,23.1540
2019-05-14T10:54:29.268Z,22.8720
2019-05-14T10:55:32.317Z,22.3483
2019-05-14T10:56:35.278Z,21.9858
2019-05-14T10:57:38.305Z,21.9958
2019-05-14T10:58:41.348Z,22.1368
2019-05-14T10:59:44.300Z,22.3785
2019-05-14T11:00:49.309Z,22.6907
2019-05-14T11:01:54.352Z,22.9626
2019-05-14T11:02:57.329Z,23.2446
2019-05-14T11:04:00.314Z,23.4763
2019-05-14T11:05:03.301Z,23.7079
2019-05-14T11:06:06.333Z,23.9194
2019-05-14T11:07:09.314Z,24.1107
2019-05-14T11:08:12.314Z,23.9798
2019-05-14T11:09:15.304Z,23.6475
2019-05-14T11:10:19.523Z,23.1842
2019-05-14T11:11:22.286Z,22.6807
2019-05-14T11:12:25.357Z,22.1368
2019-05-14T11:13:29.242Z,21.6132
2019-05-14T11:14:32.362Z,21.1499
2019-05-14T11:15:35.336Z,21.2103
2019-05-14T11:16:41.790Z,21.4017
2019-05-14T11:17:45.267Z,21.6434
2019-05-14T11:18:49.744Z,21.5427
2019-05-14T11:19:53.361Z,21.4621
2019-05-14T11:21:16.171Z,21.7239
2019-05-14T11:22:04.318Z,21.9455
2019-05-14T11:23:08.979Z,22.2476
2019-05-14T11:24:12.329Z,22.2174
2019-05-14T11:25:15.313Z,22.0361
2019-05-14T11:26:18.427Z,21.6736
2019-05-14T11:27:22.297Z,21.2909
2019-05-14T11:28:25.267Z,21.2405
2019-05-14T11:29:29.580Z,21.3513
2019-05-14T11:30:33.315Z,21.3312
2019-05-14T11:31:38.872Z,21.1096
2019-05-14T11:32:42.321Z,21.2405
2019-05-14T11:33:45.306Z,21.2103
2019-05-14T11:34:48.341Z,21.0895
2019-05-14T11:35:51.306Z,20.8478
2019-05-14T11:36:54.324Z,20.5557
2019-05-14T11:37:58.866Z,20.2838
2019-05-14T11:39:04.018Z,20.3442
2019-05-14T11:40:08.743Z,20.3946
2019-05-14T11:41:12.337Z,20.5960
2019-05-14T11:42:15.306Z,20.5960
2019-05-14T11:43:18.341Z,20.9283
2019-05-14T11:44:21.301Z,21.3211
2019-05-14T11:45:23.305Z,21.5729
2019-05-14T11:46:39.977Z,21.4822
2019-05-14T11:47:34.319Z,21.2405
2019-05-14T11:48:38.948Z,21.0190
2019-05-14T11:49:42.349Z,20.7370
2019-05-14T11:50:45.324Z,20.4349
2019-05-14T11:52:00.722Z,20.1025
2019-05-14T11:52:58.331Z,19.9414
2019-05-14T11:54:01.285Z,19.8911
2019-05-14T11:55:04.334Z,19.6594
2019-05-14T11:56:08.629Z,19.4479
2019-05-14T11:57:12.307Z,19.5184
2019-05-14T11:58:15.379Z,19.5486
2019-05-14T11:59:18.969Z,19.8508
2019-05-14T12:00:25.719Z,20.2536
2019-05-14T12:01:29.787Z,20.7169
2019-05-14T12:02:33.267Z,21.1801
2019-05-14T12:03:39.043Z,21.6031
2019-05-14T12:04:42.317Z,21.7239
2019-05-14T12:05:45.279Z,21.9455
2019-05-14T12:06:48.288Z,22.1066
2019-05-14T12:07:51.290Z,22.2980
2019-05-14T12:08:54.298Z,22.5095
2019-05-14T12:09:57.346Z,22.7209
2019-05-14T12:11:00.332Z,22.8821
2019-05-14T12:12:03.279Z,23.0029
2019-05-14T12:13:08.402Z,23.0231
2019-05-14T12:14:12.340Z,22.6807
2019-05-14T12:15:15.297Z,22.2275
2019-05-14T12:16:18.328Z,22.1066
2019-05-14T12:17:21.388Z,22.0160
2019-05-14T12:18:24.298Z,21.7239
2019-05-14T12:19:28.371Z,21.5527
2019-05-14T12:20:31.352Z,21.2405
2019-05-14T12:21:34.308Z,21.1700
2019-05-14T12:22:39.356Z,20.9485
2019-05-14T12:23:42.323Z,20.6161
2019-05-14T12:24:45.336Z,20.2838
2019-05-14T12:25:49.063Z,20.0623
2019-05-14T12:26:52.290Z,19.9414
2019-05-14T12:27:55.309Z,19.8810
2019-05-14T12:28:59.409Z,19.9213
2019-05-14T12:30:01.338Z,19.9414
2019-05-14T12:31:04.303Z,19.9918
2019-05-14T12:32:12.804Z,19.9515
2019-05-14T12:33:15.311Z,19.8810
2019-05-14T12:34:18.595Z,19.7299
2019-05-14T12:35:21.316Z,19.5386
2019-05-14T12:36:24.308Z,19.3372
2019-05-14T12:37:28.941Z,19.0854
2019-05-14T12:38:32.266Z,18.8336
2019-05-14T12:39:35.252Z,18.5818
2019-05-14T12:40:38.435Z,18.3401
2019-05-14T12:41:41.293Z,18.1085
2019-05-14T12:42:44.299Z,17.8668
2019-05-14T12:43:47.330Z,17.6050
2019-05-14T12:44:50.315Z,17.4942
2019-05-14T12:45:53.361Z,17.3129
2019-05-14T12:46:58.592Z,17.3834
2019-05-14T12:48:02.309Z,17.5647
2019-05-14T12:49:05.315Z,17.7963
2019-05-14T12:50:09.367Z,18.0783
2019-05-14T12:51:12.346Z,18.3401
2019-05-14T12:52:22.211Z,18.5919
2019-05-14T12:53:23.342Z,18.8034
2019-05-14T12:54:29.462Z,18.7833
2019-05-14T12:55:32.376Z,18.8034
2019-05-14T12:56:35.351Z,18.9847
2019-05-14T12:57:39.573Z,19.1861
2019-05-14T12:58:45.810Z,19.4379
2019-05-14T12:59:49.299Z,19.6997
2019-05-14T13:00:52.389Z,19.6997
2019-05-14T13:01:55.384Z,19.5184
2019-05-14T13:02:58.474Z,19.3069
2019-05-14T13:04:02.307Z,19.2566
2019-05-14T13:05:05.340Z,19.2868
2019-05-14T13:06:10.060Z,19.3976
2019-05-14T13:07:13.343Z,19.4479